Time;durP1;ratioP1;P1;durP2;ratioP2;P2;SDS_P1;SDS_P2;PMS_P1;PMS_P2;Temp;Humidity;BMP_temperature;BMP_pressure;BME280_temperature;BME280_humidity;BME280_pressure;Samples;Min_cycle;Max_cycle;Signal;HPM_P1;HPM_P2
2023/06/19 00:02:21;;;;;;;8.25;6.28;;;20.40;99.90;;;;;;5075574;28;20040;-59
2023/06/19 00:04:47;;;;;;;10.25;6.47;;;20.40;99.90;;;;;;5060337;28;20285;-58
2023/06/19 00:07:12;;;;;;;9.52;6.68;;;20.50;99.90;;;;;;5061280;28;20095;-59
2023/06/19 00:09:38;;;;;;;9.73;5.85;;;20.30;99.90;;;;;;5058566;28;20511;-58
2023/06/19 00:12:04;;;;;;;10.25;6.20;;;20.40;99.90;;;;;;5060248;28;20052;-59
2023/06/19 00:14:30;;;;;;;9.25;6.20;;;20.40;99.90;;;;;;5060960;28;20531;-59
2023/06/19 00:16:56;;;;;;;9.85;6.13;;;20.50;99.90;;;;;;5058192;28;20044;-59
2023/06/19 00:19:22;;;;;;;7.03;6.07;;;20.40;99.90;;;;;;5059322;28;20040;-58
2023/06/19 00:21:48;;;;;;;9.48;6.32;;;20.50;99.90;;;;;;5058610;28;20044;-59
2023/06/19 00:24:14;;;;;;;9.45;5.65;;;20.30;99.90;;;;;;5059396;28;20039;-58
2023/06/19 00:26:40;;;;;;;11.07;6.03;;;20.30;99.90;;;;;;5058453;28;20045;-59
2023/06/19 00:29:07;;;;;;;10.18;5.72;;;20.40;99.90;;;;;;5060840;28;20040;-59
2023/06/19 00:31:33;;;;;;;7.18;5.70;;;20.40;99.90;;;;;;5058401;28;20036;-58
2023/06/19 00:33:58;;;;;;;9.52;6.10;;;20.40;99.90;;;;;;5058101;28;20131;-58
2023/06/19 00:36:25;;;;;;;9.23;6.25;;;20.40;99.90;;;;;;5058330;28;20167;-58
2023/06/19 00:38:51;;;;;;;7.53;6.13;;;20.30;99.90;;;;;;5058719;28;20392;-58
2023/06/19 00:41:18;;;;;;;8.00;5.40;;;20.50;99.90;;;;;;5058387;28;20052;-58
2023/06/19 00:43:44;;;;;;;8.75;5.97;;;20.40;99.90;;;;;;5058278;28;20044;-59
2023/06/19 00:46:11;;;;;;;8.07;6.03;;;20.50;99.90;;;;;;5058344;28;20040;-58
2023/06/19 00:48:38;;;;;;;10.98;6.05;;;20.50;99.90;;;;;;5059960;28;20051;-58
2023/06/19 00:51:03;;;;;;;7.75;5.85;;;20.40;99.90;;;;;;5060798;28;20055;-59
2023/06/19 00:53:32;;;;;;;8.10;5.82;;;20.40;99.90;;;;;;5060349;28;20036;-59
2023/06/19 00:55:59;;;;;;;9.38;6.03;;;20.30;99.90;;;;;;5058509;28;20098;-58
2023/06/19 00:58:25;;;;;;;7.03;5.47;;;20.40;99.90;;;;;;5058164;28;20140;-59
2023/06/19 01:00:51;;;;;;;8.95;5.75;;;20.30;99.90;;;;;;5058673;28;20051;-58
2023/06/19 01:03:16;;;;;;;9.05;6.30;;;20.20;99.90;;;;;;5060476;28;20076;-59
2023/06/19 01:05:44;;;;;;;8.82;5.90;;;20.50;99.90;;;;;;5059340;28;20109;-59
2023/06/19 01:08:23;;;;;;;11.93;6.82;;;20.30;99.90;;;;;;5059546;28;20083;-59
2023/06/19 01:10:56;;;;;;;12.23;6.18;;;20.40;99.90;;;;;;5059188;28;20036;-59
2023/06/19 01:13:27;;;;;;;9.27;6.07;;;20.30;99.90;;;;;;5061477;28;20110;-58
2023/06/19 01:15:54;;;;;;;7.25;5.90;;;20.30;99.90;;;;;;5060341;28;20082;-59
2023/06/19 01:18:21;;;;;;;7.97;6.07;;;20.40;99.90;;;;;;5056315;28;20044;-59
2023/06/19 01:20:49;;;;;;;7.60;5.80;;;20.30;99.90;;;;;;5058331;28;20044;-59
2023/06/19 01:23:15;;;;;;;9.55;6.43;;;20.40;99.90;;;;;;5059855;28;20045;-58
2023/06/19 01:25:40;;;;;;;7.88;5.90;;;20.40;99.90;;;;;;5062018;28;20046;-58
2023/06/19 01:28:10;;;;;;;9.23;5.50;;;20.50;99.90;;;;;;5056276;28;20669;-59
2023/06/19 01:30:38;;;;;;;8.82;6.00;;;20.10;99.90;;;;;;5056384;28;20417;-59
2023/06/19 01:33:18;;;;;;;7.35;5.80;;;20.50;99.90;;;;;;5072190;28;20048;-58
2023/06/19 01:35:46;;;;;;;8.90;5.68;;;20.30;99.90;;;;;;5057393;28;20106;-59
2023/06/19 01:38:13;;;;;;;8.80;5.70;;;20.40;99.90;;;;;;5056031;28;20044;-58
2023/06/19 01:40:41;;;;;;;9.57;5.55;;;20.20;99.90;;;;;;5055732;28;20417;-59
2023/06/19 01:43:08;;;;;;;7.97;5.50;;;20.30;99.90;;;;;;5092625;27;20080;-59
2023/06/19 01:45:33;;;;;;;9.13;5.82;;;20.30;99.90;;;;;;5057342;28;20062;-59
2023/06/19 01:47:59;;;;;;;7.85;5.43;;;20.20;99.90;;;;;;5055208;28;20029;-58
2023/06/19 01:50:25;;;;;;;7.18;5.68;;;18.20;99.90;;;;;;5055794;28;20083;-59
2023/06/19 01:52:52;;;;;;;7.88;5.38;;;20.30;99.90;;;;;;5056520;28;20134;-58
2023/06/19 01:55:18;;;;;;;9.50;5.82;;;20.50;99.90;;;;;;5055834;28;20044;-59
2023/06/19 01:57:45;;;;;;;9.93;6.07;;;20.30;99.90;;;;;;5058060;28;20452;-58
2023/06/19 02:00:11;;;;;;;9.02;5.97;;;20.10;99.90;;;;;;5055704;28;20194;-58
2023/06/19 02:02:37;;;;;;;10.77;6.82;;;20.30;99.90;;;;;;5055529;28;20131;-58
2023/06/19 02:05:04;;;;;;;9.43;5.80;;;20.40;99.90;;;;;;5058386;28;20581;-57
2023/06/19 02:07:30;;;;;;;8.27;5.57;;;20.40;99.90;;;;;;5056539;28;20048;-59
2023/06/19 02:09:57;;;;;;;7.65;6.00;;;20.40;99.90;;;;;;5057991;28;20552;-58
2023/06/19 02:12:23;;;;;;;8.30;5.82;;;20.20;99.90;;;;;;5056354;28;20946;-58
2023/06/19 02:14:48;;;;;;;8.32;5.80;;;20.40;99.90;;;;;;5057460;28;20064;-58
2023/06/19 02:17:14;;;;;;;8.55;6.30;;;20.30;99.90;;;;;;5056700;28;20040;-58
2023/06/19 02:19:40;;;;;;;9.32;6.07;;;20.50;99.90;;;;;;5056162;28;20043;-58
2023/06/19 02:22:06;;;;;;;8.63;5.40;;;20.40;99.90;;;;;;5057117;28;20165;-58
2023/06/19 02:24:32;;;;;;;8.30;6.45;;;20.40;99.90;;;;;;5057004;28;20132;-58
2023/06/19 02:26:58;;;;;;;9.43;5.97;;;20.20;99.90;;;;;;5057229;28;20032;-59
2023/06/19 02:29:25;;;;;;;12.32;6.40;;;20.30;99.90;;;;;;5056288;28;20473;-57
2023/06/19 02:31:51;;;;;;;7.50;5.55;;;20.20;99.90;;;;;;5056637;28;20047;-58
2023/06/19 02:34:17;;;;;;;9.77;5.75;;;20.40;99.90;;;;;;5056144;28;20040;-58
2023/06/19 02:36:42;;;;;;;8.93;6.22;;;20.40;99.90;;;;;;5058360;28;20066;-58
2023/06/19 02:39:08;;;;;;;8.52;5.68;;;20.10;99.90;;;;;;5057229;28;20047;-58
2023/06/19 02:41:35;;;;;;;11.52;5.43;;;20.30;99.90;;;;;;5056507;28;20213;-59
2023/06/19 02:44:00;;;;;;;9.52;6.18;;;20.30;99.90;;;;;;5054787;28;20057;-58
2023/06/19 02:46:26;;;;;;;7.90;6.35;;;20.30;99.90;;;;;;5054816;28;20046;-58
2023/06/19 02:48:52;;;;;;;8.55;5.82;;;20.30;99.90;;;;;;5057465;28;20032;-58
2023/06/19 02:51:17;;;;;;;7.13;6.20;;;20.20;99.90;;;;;;5055469;28;20744;-58
2023/06/19 02:53:43;;;;;;;8.07;5.55;;;20.20;99.90;;;;;;5055810;28;20102;-58
2023/06/19 02:56:11;;;;;;;7.68;6.07;;;20.30;99.90;;;;;;5057040;28;20498;-58
2023/06/19 02:58:37;;;;;;;12.35;6.72;;;20.20;99.90;;;;;;5055558;28;20055;-58
2023/06/19 03:01:06;;;;;;;10.10;7.05;;;20.10;99.90;;;;;;5056581;28;20053;-58
2023/06/19 03:03:37;;;;;;;9.20;6.78;;;20.30;99.90;;;;;;5059124;28;20311;-57
2023/06/19 03:06:06;;;;;;;7.60;6.70;;;20.10;99.90;;;;;;5061819;28;20106;-59
2023/06/19 03:08:36;;;;;;;14.23;6.78;;;20.20;99.90;;;;;;5061334;28;20043;-58
2023/06/19 03:11:05;;;;;;;8.23;6.22;;;20.10;99.90;;;;;;5060474;28;20051;-58
2023/06/19 03:13:52;;;;;;;8.18;6.13;;;20.20;99.90;;;;;;5061070;28;20036;-58
2023/06/19 03:16:19;;;;;;;8.45;6.13;;;20.30;99.90;;;;;;5059199;28;20048;-58
2023/06/19 03:18:45;;;;;;;8.60;6.50;;;20.20;99.90;;;;;;5059445;28;20048;-58
2023/06/19 03:21:14;;;;;;;8.98;6.40;;;19.90;99.90;;;;;;5061626;28;20119;-58
2023/06/19 03:23:43;;;;;;;8.35;6.18;;;19.80;99.90;;;;;;5056363;28;20044;-58
2023/06/19 03:26:12;;;;;;;9.63;6.63;;;19.90;99.90;;;;;;5059217;28;20079;-58
2023/06/19 03:28:38;;;;;;;8.23;6.47;;;19.80;99.90;;;;;;5092634;27;20047;-57
2023/06/19 03:31:04;;;;;;;11.02;6.25;;;19.80;99.90;;;;;;5058077;28;20052;-58
2023/06/19 03:33:29;;;;;;;9.43;7.00;;;19.60;99.90;;;;;;5059163;28;20044;-58
2023/06/19 03:35:55;;;;;;;8.52;6.32;;;19.60;99.90;;;;;;5060584;28;20454;-58
2023/06/19 03:38:21;;;;;;;11.32;6.65;;;19.60;99.90;;;;;;5059727;28;20051;-58
2023/06/19 03:40:47;;;;;;;10.43;7.10;;;19.50;99.90;;;;;;5060073;28;20414;-57
2023/06/19 03:43:13;;;;;;;8.95;7.38;;;19.60;99.90;;;;;;5059189;28;20133;-57
2023/06/19 03:45:38;;;;;;;7.60;6.80;;;19.50;99.90;;;;;;5059428;28;20135;-58
2023/06/19 03:48:04;;;;;;;9.43;7.47;;;19.50;99.90;;;;;;5059065;28;20044;-58
2023/06/19 03:50:30;;;;;;;8.98;6.60;;;19.50;99.90;;;;;;5059392;28;20040;-58
2023/06/19 03:52:56;;;;;;;8.15;6.90;;;19.50;99.90;;;;;;5059299;28;20044;-57
2023/06/19 03:55:21;;;;;;;9.73;6.32;;;19.60;99.90;;;;;;5057602;28;20131;-58
2023/06/19 03:57:47;;;;;;;8.13;6.47;;;19.50;99.90;;;;;;5058131;28;20486;-59
2023/06/19 04:00:14;;;;;;;8.43;6.00;;;17.60;99.90;;;;;;5057480;28;20048;-58
2023/06/19 04:02:41;;;;;;;12.65;7.10;;;19.20;99.90;;;;;;5058544;28;20049;-58
2023/06/19 04:05:07;;;;;;;8.32;6.60;;;19.50;99.90;;;;;;5057929;28;20109;-59
2023/06/19 04:07:33;;;;;;;11.77;7.05;;;19.60;99.90;;;;;;5059066;28;20528;-59
2023/06/19 04:09:59;;;;;;;10.25;6.82;;;19.40;99.90;;;;;;5058724;28;20036;-58
2023/06/19 04:12:25;;;;;;;9.52;6.90;;;19.80;99.90;;;;;;5057823;28;20111;-59
2023/06/19 04:14:50;;;;;;;8.82;6.13;;;19.80;99.90;;;;;;5057912;28;20044;-58
2023/06/19 04:17:17;;;;;;;9.93;6.50;;;19.60;99.90;;;;;;5059058;28;20071;-58
2023/06/19 04:19:43;;;;;;;10.55;6.72;;;19.80;99.90;;;;;;5057844;28;20409;-58
2023/06/19 04:22:08;;;;;;;9.10;6.55;;;19.60;99.90;;;;;;5056957;28;20040;-59
2023/06/19 04:24:35;;;;;;;10.38;5.88;;;19.70;99.90;;;;;;5059819;28;20127;-58
2023/06/19 04:27:00;;;;;;;8.38;6.05;;;19.90;99.90;;;;;;5059916;28;20181;-58
2023/06/19 04:29:31;;;;;;;11.30;6.43;;;19.90;99.90;;;;;;5058691;28;20146;-58
2023/06/19 04:32:00;;;;;;;9.57;6.03;;;20.00;99.90;;;;;;5060820;28;20036;-58
2023/06/19 04:34:26;;;;;;;11.07;6.68;;;19.70;99.90;;;;;;5059423;28;20048;-59
2023/06/19 04:36:52;;;;;;;9.20;5.82;;;19.80;99.90;;;;;;5060089;28;20052;-60
2023/06/19 04:39:17;;;;;;;8.00;5.93;;;19.80;99.90;;;;;;5058325;28;20052;-58
2023/06/19 04:41:44;;;;;;;9.13;5.30;;;19.90;99.90;;;;;;5058568;28;20081;-61
2023/06/19 04:44:11;;;;;;;8.55;5.30;;;19.90;99.90;;;;;;5059644;28;20052;-57
2023/06/19 04:46:38;;;;;;;8.77;4.97;;;19.80;99.90;;;;;;5061861;28;20044;-57
2023/06/19 04:49:04;;;;;;;8.25;3.97;;;20.00;99.90;;;;;;5061070;28;20519;-57
2023/06/19 04:51:33;;;;;;;9.52;3.90;;;19.90;99.90;;;;;;5059465;28;20082;-56
2023/06/19 04:53:59;;;;;;;8.25;4.32;;;19.80;99.90;;;;;;5058385;28;20043;-56
2023/06/19 04:56:25;;;;;;;8.00;3.88;;;20.10;99.90;;;;;;5062836;28;20052;-57
2023/06/19 04:58:51;;;;;;;6.50;3.40;;;19.90;99.90;;;;;;5059148;28;20137;-57
2023/06/19 05:01:17;;;;;;;6.28;4.07;;;20.00;99.90;;;;;;5060935;28;20059;-57
2023/06/19 05:03:48;;;;;;;6.88;4.40;;;19.90;99.90;;;;;;5057381;28;20036;-55
2023/06/19 05:06:13;;;;;;;7.32;4.18;;;20.10;99.90;;;;;;5057063;28;20513;-57
2023/06/19 05:08:39;;;;;;;6.07;4.20;;;20.10;99.90;;;;;;5058967;28;20128;-56
2023/06/19 05:11:05;;;;;;;6.78;4.35;;;20.00;99.90;;;;;;5056770;28;20059;-57
2023/06/19 05:13:30;;;;;;;9.23;4.65;;;20.10;99.90;;;;;;5059355;28;20044;-57
2023/06/19 05:15:56;;;;;;;7.35;4.18;;;20.10;99.90;;;;;;5059600;28;20056;-57
2023/06/19 05:18:22;;;;;;;6.57;4.03;;;20.10;99.90;;;;;;5059386;28;20048;-56
2023/06/19 05:20:48;;;;;;;6.80;4.05;;;20.30;99.90;;;;;;5056363;28;20426;-57
2023/06/19 05:23:14;;;;;;;7.80;4.10;;;20.30;99.90;;;;;;5056095;28;20036;-57
2023/06/19 05:25:39;;;;;;;8.90;4.10;;;20.20;99.90;;;;;;5055830;28;20919;-57
2023/06/19 05:28:05;;;;;;;6.75;4.07;;;20.50;99.90;;;;;;5089326;27;20051;-57
2023/06/19 05:30:31;;;;;;;9.43;4.72;;;20.30;99.90;;;;;;5054874;28;20479;-58
2023/06/19 05:32:57;;;;;;;7.03;4.50;;;20.50;99.90;;;;;;5055962;28;20063;-58
2023/06/19 05:35:22;;;;;;;8.07;4.85;;;20.30;99.90;;;;;;5059996;28;20037;-58
2023/06/19 05:37:48;;;;;;;6.55;4.82;;;20.20;99.90;;;;;;5058130;28;20050;-59
2023/06/19 05:40:14;;;;;;;7.35;4.78;;;20.30;99.90;;;;;;5057941;28;20035;-57
2023/06/19 05:42:40;;;;;;;8.63;5.95;;;20.30;99.90;;;;;;5055716;28;20095;-58
2023/06/19 05:45:07;;;;;;;8.20;6.47;;;20.20;99.90;;;;;;5056489;28;20052;-58
2023/06/19 05:47:33;;;;;;;9.75;6.28;;;20.30;99.90;;;;;;5056713;28;20044;-58
2023/06/19 05:49:59;;;;;;;8.77;6.68;;;20.20;99.90;;;;;;5055845;28;20055;-59
2023/06/19 05:52:25;;;;;;;8.52;7.00;;;20.30;99.90;;;;;;5057762;28;20037;-58
2023/06/19 05:54:52;;;;;;;8.95;6.88;;;20.30;99.90;;;;;;5056083;28;20136;-58
2023/06/19 05:57:20;;;;;;;10.48;7.57;;;20.40;99.90;;;;;;5057730;28;20531;-58
2023/06/19 05:59:47;;;;;;;12.13;7.97;;;20.20;99.90;;;;;;5056934;28;20044;-59
2023/06/19 06:02:13;;;;;;;10.18;8.00;;;20.20;99.90;;;;;;5055986;28;20040;-58
2023/06/19 06:04:39;;;;;;;13.50;9.02;;;20.20;99.90;;;;;;5058774;28;20084;-59
2023/06/19 06:07:05;;;;;;;11.32;9.50;;;20.20;99.90;;;;;;5096018;27;20205;-58
2023/06/19 06:09:32;;;;;;;12.40;9.30;;;20.30;99.90;;;;;;5093232;27;20493;-58
2023/06/19 06:11:59;;;;;;;12.20;9.82;;;20.40;99.90;;;;;;5058757;28;20430;-58
2023/06/19 06:14:26;;;;;;;13.65;10.00;;;19.90;99.90;;;;;;5058636;28;20118;-58
2023/06/19 06:16:51;;;;;;;18.42;11.80;;;20.30;99.90;;;;;;5058602;28;20040;-58
2023/06/19 06:19:18;;;;;;;13.57;10.32;;;20.30;99.90;;;;;;5057830;28;20059;-57
2023/06/19 06:21:43;;;;;;;14.10;11.18;;;20.20;99.90;;;;;;5057267;28;20055;-58
2023/06/19 06:24:09;;;;;;;13.20;10.57;;;20.20;99.90;;;;;;5056640;28;20041;-57
2023/06/19 06:26:35;;;;;;;14.82;10.43;;;20.20;99.90;;;;;;5057700;28;20044;-57
2023/06/19 06:29:02;;;;;;;12.95;9.48;;;20.10;99.90;;;;;;5058316;28;20048;-59
2023/06/19 06:31:28;;;;;;;12.18;10.88;;;20.20;99.90;;;;;;5057796;28;20109;-58
2023/06/19 06:33:53;;;;;;;12.10;10.80;;;20.30;99.90;;;;;;5087730;27;20314;-57
2023/06/19 06:36:19;;;;;;;13.35;11.93;;;20.40;99.90;;;;;;5058734;28;20036;-58
2023/06/19 06:38:45;;;;;;;13.07;11.68;;;20.20;99.90;;;;;;5057060;28;20052;-59
2023/06/19 06:41:11;;;;;;;12.88;11.45;;;20.40;99.90;;;;;;5054063;28;20042;-58
2023/06/19 06:43:38;;;;;;;13.80;11.13;;;20.10;99.90;;;;;;5055879;28;20084;-58
2023/06/19 06:46:04;;;;;;;13.32;11.70;;;20.20;99.90;;;;;;5058578;28;20083;-58
2023/06/19 06:48:30;;;;;;;12.95;11.55;;;20.30;99.90;;;;;;5058401;28;20102;-58
2023/06/19 06:51:01;;;;;;;13.35;11.88;;;20.10;99.90;;;;;;5056752;28;20723;-58
2023/06/19 06:53:28;;;;;;;15.80;12.10;;;20.00;99.90;;;;;;5055661;28;20390;-57
2023/06/19 06:55:54;;;;;;;14.07;12.55;;;19.70;99.90;;;;;;5055524;28;20049;-58
2023/06/19 06:58:20;;;;;;;20.95;15.32;;;19.90;99.90;;;;;;5058925;28;20188;-58
2023/06/19 07:00:47;;;;;;;21.95;17.33;;;20.00;99.90;;;;;;5056088;28;20131;-58
2023/06/19 07:03:13;;;;;;;21.90;18.65;;;19.90;99.90;;;;;;5055628;28;20468;-58
2023/06/19 07:05:38;;;;;;;28.65;20.95;;;19.70;99.90;;;;;;5056792;28;20159;-58
2023/06/19 07:08:04;;;;;;;30.27;22.15;;;19.80;99.90;;;;;;5057596;28;20060;-57
2023/06/19 07:10:31;;;;;;;26.33;20.40;;;19.80;99.90;;;;;;5055025;28;20094;-57
2023/06/19 07:12:56;;;;;;;26.48;20.27;;;19.60;99.90;;;;;;5055378;28;20119;-58
2023/06/19 07:15:22;;;;;;;28.23;22.15;;;19.70;99.90;;;;;;5087867;28;20127;-58
2023/06/19 07:17:48;;;;;;;30.45;22.35;;;19.40;99.90;;;;;;5054671;28;20368;-58
2023/06/19 07:20:14;;;;;;;28.20;22.08;;;19.40;99.90;;;;;;5057165;28;20052;-58
2023/06/19 07:22:41;;;;;;;27.83;21.75;;;19.30;99.90;;;;;;5057922;28;20052;-57
2023/06/19 07:25:07;;;;;;;28.23;19.67;;;19.40;99.90;;;;;;5056338;28;20056;-58
2023/06/19 07:27:33;;;;;;;24.20;17.50;;;19.60;99.90;;;;;;5038840;28;20453;-58
2023/06/19 07:29:59;;;;;;;21.00;16.67;;;19.60;99.90;;;;;;5057384;28;20058;-57
2023/06/19 07:32:25;;;;;;;25.20;19.00;;;19.50;99.90;;;;;;5057684;28;20866;-57
2023/06/19 07:34:50;;;;;;;21.05;17.17;;;19.50;99.90;;;;;;5054435;28;20051;-58
2023/06/19 07:37:20;;;;;;;24.55;17.30;;;19.70;99.90;;;;;;5060760;28;20042;-58
2023/06/19 07:39:47;;;;;;;25.77;19.35;;;19.70;99.90;;;;;;5055140;28;20060;-58
2023/06/19 07:42:14;;;;;;;27.38;18.35;;;19.70;99.90;;;;;;5059089;28;20063;-58
2023/06/19 07:44:40;;;;;;;22.63;17.88;;;19.50;99.90;;;;;;5054820;28;20052;-58
2023/06/19 07:47:06;;;;;;;20.23;16.77;;;19.80;99.90;;;;;;5057257;28;20051;-58
2023/06/19 07:49:32;;;;;;;21.58;17.52;;;19.50;99.90;;;;;;5058816;28;20045;-58
2023/06/19 07:51:58;;;;;;;25.45;16.83;;;19.50;99.90;;;;;;5062614;28;20592;-57
2023/06/19 07:54:24;;;;;;;21.02;15.32;;;19.70;99.90;;;;;;5059888;28;20048;-57
2023/06/19 07:56:49;;;;;;;18.08;13.52;;;19.80;99.90;;;;;;5060937;28;20581;-58
2023/06/19 07:59:16;;;;;;;19.55;12.68;;;19.70;99.90;;;;;;5059577;28;20044;-58
2023/06/19 08:01:43;;;;;;;18.98;13.85;;;19.90;99.90;;;;;;5056589;28;20170;-58
2023/06/19 08:04:08;;;;;;;18.80;14.27;;;19.60;99.90;;;;;;5058487;28;20044;-58
2023/06/19 08:06:34;;;;;;;15.15;12.15;;;19.80;99.90;;;;;;5061237;28;20048;-58
2023/06/19 08:09:00;;;;;;;17.77;13.70;;;19.60;99.90;;;;;;5058104;28;20101;-59
2023/06/19 08:11:26;;;;;;;16.48;14.43;;;19.90;99.90;;;;;;5060032;28;20032;-58
2023/06/19 08:13:51;;;;;;;17.98;12.90;;;19.60;99.90;;;;;;5057399;28;21067;-58
2023/06/19 08:16:18;;;;;;;16.25;13.23;;;19.50;99.90;;;;;;5059466;28;20044;-57
2023/06/19 08:18:45;;;;;;;18.27;13.15;;;19.60;99.90;;;;;;5056884;28;20578;-60
2023/06/19 08:21:11;;;;;;;18.30;13.43;;;19.60;99.90;;;;;;5058893;28;20094;-61
2023/06/19 08:23:43;;;;;;;14.63;13.05;;;19.70;99.90;;;;;;5057161;28;20697;-61
2023/06/19 08:26:09;;;;;;;18.40;13.45;;;19.40;99.90;;;;;;5058396;28;20502;-60
2023/06/19 08:28:35;;;;;;;20.13;11.57;;;19.60;99.90;;;;;;5059135;28;20047;-62
2023/06/19 08:31:00;;;;;;;14.07;10.95;;;19.40;99.90;;;;;;5059270;28;20049;-59
2023/06/19 08:33:26;;;;;;;14.05;11.23;;;19.40;99.90;;;;;;5057778;28;20048;-59
2023/06/19 08:35:52;;;;;;;13.98;10.75;;;21.70;99.90;;;;;;5056838;28;20037;-59
2023/06/19 08:38:18;;;;;;;15.45;8.88;;;19.10;99.90;;;;;;5057553;28;20120;-59
2023/06/19 08:40:45;;;;;;;12.35;8.30;;;19.40;99.90;;;;;;5057417;28;20041;-59
2023/06/19 08:43:11;;;;;;;14.13;8.93;;;19.30;99.90;;;;;;5057436;28;20071;-58
2023/06/19 08:45:37;;;;;;;13.95;9.02;;;19.40;99.90;;;;;;5056742;28;20044;-59
2023/06/19 08:48:03;;;;;;;12.43;8.10;;;19.40;99.90;;;;;;5056468;28;20044;-59
2023/06/19 08:50:30;;;;;;;11.43;8.43;;;19.60;99.90;;;;;;5057568;28;20470;-59
2023/06/19 08:52:56;;;;;;;14.60;7.50;;;19.30;99.90;;;;;;5057197;28;20038;-59
2023/06/19 08:55:23;;;;;;;11.10;7.53;;;19.70;99.90;;;;;;5058075;28;20079;-59
2023/06/19 08:57:50;;;;;;;11.35;7.88;;;19.80;99.90;;;;;;5059173;28;20037;-60
2023/06/19 09:00:27;;;;;;;13.25;7.85;;;19.90;99.90;;;;;;5059199;28;20173;-60
2023/06/19 09:03:02;;;;;;;13.77;7.85;;;20.10;99.90;;;;;;5061997;28;20568;-59
2023/06/19 09:05:27;;;;;;;13.15;7.53;;;20.10;99.90;;;;;;5062872;28;20054;-59
2023/06/19 09:08:00;;;;;;;12.20;8.38;;;20.00;99.90;;;;;;5063645;28;20036;-60
2023/06/19 09:10:26;;;;;;;9.98;7.75;;;20.00;99.90;;;;;;5092889;27;20055;-59
2023/06/19 09:13:04;;;;;;;11.77;7.70;;;19.90;99.90;;;;;;5059313;28;20056;-60
2023/06/19 09:15:36;;;;;;;9.57;7.72;;;20.00;99.90;;;;;;5058083;28;20044;-60
2023/06/19 09:18:10;;;;;;;12.02;7.57;;;20.00;99.90;;;;;;5058662;28;20249;-60
2023/06/19 09:20:41;;;;;;;11.85;7.72;;;20.00;99.90;;;;;;5061061;28;20075;-59
2023/06/19 09:23:07;;;;;;;10.93;8.43;;;19.90;99.90;;;;;;5058166;28;20565;-60
2023/06/19 09:25:44;;;;;;;13.55;8.57;;;20.00;99.90;;;;;;5059152;28;20119;-60
2023/06/19 09:28:24;;;;;;;10.82;8.80;;;19.60;99.90;;;;;;5057400;28;24287;-60
2023/06/19 09:31:00;;;;;;;11.15;9.27;;;19.50;99.90;;;;;;5057078;28;20044;-59
2023/06/19 09:33:28;;;;;;;12.15;9.32;;;19.60;99.90;;;;;;5056380;28;20071;-60
2023/06/19 09:35:55;;;;;;;13.40;10.25;;;19.70;99.90;;;;;;5055304;28;20041;-59
2023/06/19 09:38:25;;;;;;;12.15;10.13;;;19.80;99.90;;;;;;5057994;28;20052;-60
2023/06/19 09:40:51;;;;;;;11.73;9.88;;;19.80;99.90;;;;;;5056831;28;20064;-60
2023/06/19 09:43:24;;;;;;;13.10;9.43;;;19.80;99.90;;;;;;5056771;28;20060;-60
2023/06/19 09:45:51;;;;;;;14.07;11.15;;;19.70;99.90;;;;;;5059087;28;20056;-59
2023/06/19 09:48:22;;;;;;;16.13;10.85;;;19.70;99.90;;;;;;5056958;28;20405;-59
2023/06/19 09:50:51;;;;;;;15.67;11.27;;;19.80;99.90;;;;;;5056254;28;20043;-59
2023/06/19 09:53:19;;;;;;;14.85;10.25;;;19.50;99.90;;;;;;5055109;28;20725;-59
2023/06/19 09:55:50;;;;;;;20.83;12.80;;;19.60;99.90;;;;;;5056759;28;20631;-60
2023/06/19 09:58:20;;;;;;;13.30;10.77;;;19.40;99.90;;;;;;5059248;28;20463;-60
2023/06/19 10:00:47;;;;;;;15.57;11.40;;;19.30;99.90;;;;;;5057914;28;20058;-59
2023/06/19 10:03:16;;;;;;;12.68;9.80;;;19.20;99.90;;;;;;5059939;28;20044;-60
2023/06/19 10:05:43;;;;;;;17.67;12.50;;;19.10;99.90;;;;;;5058965;28;20054;-60
2023/06/19 10:08:09;;;;;;;15.43;10.95;;;19.30;99.90;;;;;;5060479;28;20197;-60
2023/06/19 10:10:36;;;;;;;15.57;10.98;;;19.30;99.90;;;;;;5058109;28;20037;-60
2023/06/19 10:13:16;;;;;;;13.32;10.73;;;19.50;99.90;;;;;;5058633;28;21504;-60
2023/06/19 10:15:44;;;;;;;13.93;11.20;;;19.20;99.90;;;;;;5056903;28;20044;-60
2023/06/19 10:18:16;;;;;;;18.98;11.98;;;19.30;99.90;;;;;;5058011;28;20120;-60
2023/06/19 10:20:43;;;;;;;11.93;10.13;;;19.60;99.90;;;;;;5057505;28;20036;-60
2023/06/19 10:23:17;;;;;;;14.40;11.05;;;19.80;99.90;;;;;;5057540;28;20044;-59
2023/06/19 10:25:53;;;;;;;14.75;11.18;;;19.90;99.90;;;;;;5055839;28;20132;-60
2023/06/19 10:28:27;;;;;;;14.40;12.20;;;19.60;99.90;;;;;;5057882;28;20047;-59
2023/06/19 10:30:54;;;;;;;17.33;11.90;;;19.70;99.90;;;;;;5088296;27;20134;-59
2023/06/19 10:33:25;;;;;;;16.35;11.32;;;19.80;99.90;;;;;;5056813;28;20052;-60
2023/06/19 10:35:51;;;;;;;14.45;11.35;;;19.70;99.90;;;;;;5056972;28;20058;-60
2023/06/19 10:38:17;;;;;;;19.80;11.30;;;19.60;99.90;;;;;;5059779;28;20295;-60
2023/06/19 10:40:44;;;;;;;16.92;11.40;;;19.80;99.90;;;;;;5057813;28;20087;-59
2023/06/19 10:43:11;;;;;;;16.58;11.43;;;19.80;99.90;;;;;;5056776;28;20052;-60
2023/06/19 10:45:37;;;;;;;19.08;12.05;;;19.80;99.90;;;;;;5058132;28;21652;-60
2023/06/19 10:48:04;;;;;;;18.05;10.40;;;20.10;99.90;;;;;;5056062;28;20462;-60
2023/06/19 10:50:33;;;;;;;17.92;11.60;;;20.20;99.90;;;;;;5057041;28;20515;-59
2023/06/19 10:52:59;;;;;;;18.00;11.23;;;20.00;99.90;;;;;;5057458;28;20119;-60
2023/06/19 10:55:25;;;;;;;15.02;11.68;;;20.00;99.90;;;;;;5059627;28;20040;-59
2023/06/19 10:57:51;;;;;;;19.40;12.80;;;20.00;99.90;;;;;;5055248;28;20799;-59
2023/06/19 11:00:31;;;;;;;20.13;12.63;;;20.10;99.90;;;;;;5055746;28;20032;-60
2023/06/19 11:02:57;;;;;;;19.02;11.45;;;20.30;99.90;;;;;;5054514;28;20123;-58
2023/06/19 11:05:24;;;;;;;16.75;10.98;;;20.20;99.90;;;;;;5055400;28;20036;-60
2023/06/19 11:07:54;;;;;;;18.48;13.65;;;20.30;99.90;;;;;;5059891;28;20093;-59
2023/06/19 11:10:23;;;;;;;16.48;12.32;;;20.10;99.90;;;;;;5056084;28;20032;-59
2023/06/19 11:12:49;;;;;;;18.25;12.98;;;20.20;99.90;;;;;;5057648;28;20043;-59
2023/06/19 11:15:15;;;;;;;20.35;14.13;;;20.10;99.90;;;;;;5055462;28;20091;-60
2023/06/19 11:17:41;;;;;;;20.80;13.88;;;20.20;99.90;;;;;;5055629;28;21301;-59
2023/06/19 11:20:14;;;;;;;18.85;13.65;;;20.30;99.90;;;;;;5056026;28;21700;-60
2023/06/19 11:22:41;;;;;;;16.75;12.45;;;20.50;99.90;;;;;;5056823;28;20124;-60
2023/06/19 11:25:09;;;;;;;21.52;13.32;;;20.50;99.90;;;;;;5057266;28;20631;-59
2023/06/19 11:27:39;;;;;;;15.82;13.50;;;20.70;99.90;;;;;;5060091;28;20113;-59
2023/06/19 11:30:07;;;;;;;19.17;12.32;;;20.60;99.90;;;;;;5058234;28;20382;-59
2023/06/19 11:32:40;;;;;;;18.52;13.38;;;20.80;99.90;;;;;;5058300;28;20586;-60
2023/06/19 11:35:12;;;;;;;22.30;13.85;;;21.00;99.90;;;;;;5061329;28;20046;-58
2023/06/19 11:37:42;;;;;;;18.38;13.80;;;21.20;99.90;;;;;;5060512;28;20037;-59
2023/06/19 11:40:20;;;;;;;19.10;13.48;;;21.10;99.90;;;;;;5058908;28;20044;-60
2023/06/19 11:42:52;;;;;;;19.23;14.95;;;21.50;99.90;;;;;;5058739;28;20126;-60
2023/06/19 11:45:18;;;;;;;18.48;14.55;;;21.40;99.90;;;;;;5061771;28;20758;-59
2023/06/19 11:47:49;;;;;;;17.02;15.23;;;21.70;99.90;;;;;;5060066;28;20032;-60
2023/06/19 11:50:19;;;;;;;19.88;14.75;;;21.70;99.90;;;;;;5060812;28;20036;-59
2023/06/19 11:52:46;;;;;;;18.42;13.30;;;21.80;99.90;;;;;;5058585;28;20613;-60
2023/06/19 11:55:15;;;;;;;16.13;13.45;;;22.00;99.90;;;;;;5058366;28;20086;-60
2023/06/19 11:57:41;;;;;;;20.13;14.15;;;21.70;99.90;;;;;;5058934;28;20070;-59
2023/06/19 12:00:17;;;;;;;20.70;13.43;;;21.70;99.90;;;;;;5058481;28;20044;-59
2023/06/19 12:02:46;;;;;;;18.60;12.73;;;21.90;99.90;;;;;;5059323;28;20588;-60
2023/06/19 12:05:12;;;;;;;17.10;12.85;;;21.80;99.90;;;;;;5062323;28;20049;-59
2023/06/19 12:07:38;;;;;;;14.65;12.88;;;22.00;99.90;;;;;;5060797;28;20424;-59
2023/06/19 12:10:09;;;;;;;16.63;12.48;;;21.90;99.90;;;;;;5059774;28;20040;-59
2023/06/19 12:12:36;;;;;;;17.42;13.02;;;22.10;99.90;;;;;;5059065;28;21289;-59
2023/06/19 12:15:02;;;;;;;14.85;12.95;;;21.90;99.90;;;;;;5059164;28;20110;-59
2023/06/19 12:17:29;;;;;;;18.50;13.48;;;22.00;99.90;;;;;;5074441;28;20044;-59
2023/06/19 12:19:55;;;;;;;15.00;11.95;;;21.80;99.90;;;;;;5058814;28;20398;-59
2023/06/19 12:22:21;;;;;;;15.52;12.57;;;22.00;99.90;;;;;;5060491;28;20445;-59
2023/06/19 12:24:46;;;;;;;16.55;13.00;;;22.10;99.90;;;;;;5055922;28;20262;-59
2023/06/19 12:27:12;;;;;;;17.75;11.13;;;22.00;99.90;;;;;;5059469;28;20113;-60
2023/06/19 12:29:38;;;;;;;17.50;12.60;;;21.90;99.90;;;;;;5058063;28;20864;-59
2023/06/19 12:32:04;;;;;;;16.08;12.70;;;22.10;99.90;;;;;;5059434;28;20047;-59
2023/06/19 12:34:30;;;;;;;17.42;11.73;;;22.60;99.90;;;;;;5059094;28;20047;-59
2023/06/19 12:36:57;;;;;;;16.55;12.20;;;22.50;99.90;;;;;;5059603;28;20037;-60